Time;durP1;ratioP1;P1;durP2;ratioP2;P2;SDS_P1;SDS_P2;PMS_P1;PMS_P2;Temp;Humidity;BMP_temperature;BMP_pressure;BME280_temperature;BME280_humidity;BME280_pressure;Samples;Min_cycle;Max_cycle;Signal;HPM_P1;HPM_P2
2022/12/01 00:01:50;;;;;;;22.90;10.70;;;;;;;0.01;93.49;99690.54;214152;1310;25226;-73
2022/12/01 00:06:52;;;;;;;27.30;10.90;;;;;;;-0.01;93.43;99685.46;213988;1310;25217;-76
2022/12/01 00:11:53;;;;;;;26.30;11.80;;;;;;;-0.03;93.60;99680.32;213987;1310;24363;-75
2022/12/01 00:17:01;;;;;;;21.00;10.00;;;;;;;-0.03;93.56;99677.02;214100;1310;22466;-74
2022/12/01 00:22:03;;;;;;;22.00;9.20;;;;;;;-0.01;93.80;99675.45;214169;1302;22477;-75
2022/12/01 00:27:04;;;;;;;20.80;9.70;;;;;;;-0.02;93.78;99671.84;214102;1310;25443;-74
2022/12/01 00:32:07;;;;;;;20.90;10.00;;;;;;;0.02;93.93;99672.10;214107;1306;22505;-74
2022/12/01 00:37:09;;;;;;;25.30;9.80;;;;;;;0.03;93.89;99671.21;214064;1310;22700;-75
2022/12/01 00:42:11;;;;;;;24.10;10.70;;;;;;;0.05;94.08;99679.45;213951;1310;22465;-75
2022/12/01 00:47:14;;;;;;;21.50;10.50;;;;;;;0.08;94.10;99676.63;214046;1310;25334;-75
2022/12/01 00:52:18;;;;;;;24.00;10.20;;;;;;;0.12;94.32;99669.27;214154;1310;22594;-74
2022/12/01 00:57:19;;;;;;;21.80;10.50;;;;;;;0.14;94.12;99667.31;214069;1310;22656;-75
2022/12/01 01:02:22;;;;;;;21.40;10.60;;;;;;;0.15;94.00;99667.00;214038;1310;23780;-74
2022/12/01 01:07:24;;;;;;;25.00;10.20;;;;;;;0.19;94.13;99665.02;214160;1310;22469;-75
2022/12/01 01:12:27;;;;;;;26.10;13.90;;;;;;;0.23;94.42;99667.23;214035;1310;26039;-75
2022/12/01 01:17:29;;;;;;;25.90;12.10;;;;;;;0.29;94.13;99661.45;214194;1310;23159;-75
2022/12/01 01:22:31;;;;;;;22.00;11.60;;;;;;;0.31;94.04;99657.06;214095;1310;22981;-75
2022/12/01 01:27:33;;;;;;;25.10;11.30;;;;;;;0.35;94.04;99658.14;213967;1310;22504;-75
2022/12/01 01:32:35;;;;;;;22.90;11.40;;;;;;;0.37;94.05;99654.09;214316;1310;24248;-74
2022/12/01 01:37:37;;;;;;;23.90;11.80;;;;;;;0.41;94.13;99651.02;213935;1310;22496;-75
2022/12/01 01:42:39;;;;;;;21.80;12.00;;;;;;;0.45;94.17;99643.75;214027;1310;25367;-76
2022/12/01 01:47:41;;;;;;;23.10;11.40;;;;;;;0.46;94.07;99642.83;214028;1310;25584;-74
2022/12/01 01:52:54;;;;;;;19.20;9.90;;;;;;;0.46;93.77;99636.29;214252;1304;24315;-74
2022/12/01 01:57:56;;;;;;;25.00;12.00;;;;;;;0.47;93.86;99632.65;214003;1310;22622;-74
2022/12/01 02:02:58;;;;;;;20.50;10.20;;;;;;;0.49;94.02;99625.87;214109;1309;24394;-75
2022/12/01 02:08:02;;;;;;;19.20;9.20;;;;;;;0.54;94.23;99628.75;214331;1304;22974;-75
2022/12/01 02:13:41;;;;;;;18.70;9.90;;;;;;;0.58;94.17;99622.43;214059;1310;22502;-75
2022/12/01 02:19:06;;;;;;;18.70;8.90;;;;;;;0.59;93.93;99621.86;214174;1310;23095;-74
2022/12/01 02:24:39;;;;;;;18.00;9.40;;;;;;;0.57;94.03;99618.91;214211;1303;24460;-74
2022/12/01 02:30:06;;;;;;;19.40;9.40;;;;;;;0.61;94.29;99616.48;214271;1310;25319;-75
2022/12/01 02:35:17;;;;;;;23.40;12.00;;;;;;;0.63;94.29;99618.86;214072;1310;22502;-75
2022/12/01 02:40:27;;;;;;;20.30;10.80;;;;;;;0.61;93.91;99617.92;214315;1310;22461;-75
2022/12/01 02:46:04;;;;;;;24.80;10.80;;;;;;;0.61;94.13;99616.02;214099;1310;25306;-75
2022/12/01 02:51:13;;;;;;;22.30;10.40;;;;;;;0.60;94.37;99614.08;214077;1310;22579;-75
2022/12/01 02:56:20;;;;;;;20.90;10.90;;;;;;;0.63;94.28;99608.08;213967;1310;22473;-75
2022/12/01 03:01:22;;;;;;;21.20;10.70;;;;;;;0.68;94.54;99609.58;214073;1309;22684;-76
2022/12/01 03:06:45;;;;;;;17.90;9.00;;;;;;;0.75;94.53;99601.70;214191;1310;22486;-75
2022/12/01 03:12:15;;;;;;;21.00;9.70;;;;;;;0.78;94.52;99592.93;214050;1310;24309;-75
2022/12/01 03:17:22;;;;;;;;;;;;;;;0.81;94.62;99591.20;214196;1310;22962;-75
2022/12/01 03:22:35;;;;;;;16.70;8.60;;;;;;;0.81;94.57;99586.45;214178;1310;22484;-74
2022/12/01 03:27:41;;;;;;;20.50;10.70;;;;;;;0.80;94.51;99587.83;214161;1289;25366;-75
2022/12/01 03:33:08;;;;;;;17.40;9.30;;;;;;;0.81;94.48;99588.52;214141;1310;25223;-74
2022/12/01 03:38:29;;;;;;;19.60;10.00;;;;;;;0.84;94.65;99588.80;214318;1310;25294;-75
2022/12/01 03:43:37;;;;;;;17.00;9.40;;;;;;;0.86;94.59;99587.48;214103;1310;22529;-74
2022/12/01 03:48:40;;;;;;;21.60;11.50;;;;;;;0.87;94.49;99584.73;213962;1310;23930;-73
2022/12/01 03:53:55;;;;;;;19.50;10.90;;;;;;;0.85;94.57;99592.84;214107;1310;25271;-74
2022/12/01 03:59:01;;;;;;;17.30;9.60;;;;;;;0.86;94.67;99592.08;213979;1310;25340;-74
2022/12/01 04:04:10;;;;;;;24.40;12.20;;;;;;;0.85;94.57;99586.85;214106;1310;23198;-74
2022/12/01 04:09:12;;;;;;;23.10;12.30;;;;;;;0.87;94.51;99580.91;213967;1310;22479;-73
2022/12/01 04:14:14;;;;;;;18.50;9.40;;;;;;;0.86;94.66;99582.58;213900;1310;23819;-74
2022/12/01 04:19:16;;;;;;;20.50;11.00;;;;;;;0.90;94.84;99580.39;213983;1310;22461;-75
2022/12/01 04:24:18;;;;;;;23.90;11.30;;;;;;;0.88;94.59;99575.80;213988;1310;22534;-74
2022/12/01 04:29:20;;;;;;;24.10;11.70;;;;;;;0.90;94.87;99576.30;214092;1309;24397;-75
2022/12/01 04:34:21;;;;;;;21.50;10.80;;;;;;;0.92;94.76;99575.38;214094;1310;23777;-75
2022/12/01 04:39:23;;;;;;;17.00;9.20;;;;;;;0.92;94.72;99573.12;214022;1310;22467;-74
2022/12/01 04:44:25;;;;;;;21.20;11.10;;;;;;;0.89;94.65;99576.61;213987;1310;22755;-75
2022/12/01 04:49:36;;;;;;;22.00;11.30;;;;;;;0.91;94.84;99581.60;214052;1310;24276;-74
2022/12/01 04:54:37;;;;;;;19.50;10.60;;;;;;;0.89;94.57;99582.63;213989;1288;25405;-74
2022/12/01 04:59:39;;;;;;;17.00;9.60;;;;;;;0.86;94.66;99584.33;214131;1310;22525;-75
2022/12/01 05:04:44;;;;;;;21.50;10.10;;;;;;;0.89;94.80;99589.96;213941;1309;22578;-75
2022/12/01 05:09:46;;;;;;;21.60;12.00;;;;;;;0.93;94.95;99593.16;214067;1311;25264;-75
2022/12/01 05:14:49;;;;;;;25.00;12.90;;;;;;;0.94;94.68;99592.84;214066;1310;25463;-75
2022/12/01 05:25:11;;;;;;;18.00;9.40;;;;;;;0.93;94.85;99592.92;213996;1310;22712;-74
2022/12/01 05:30:13;;;;;;;21.00;10.70;;;;;;;0.94;94.93;99592.80;213950;1309;22798;-73
2022/12/01 05:35:15;;;;;;;19.90;9.40;;;;;;;0.92;94.78;99590.77;213945;1307;22533;-75
2022/12/01 05:40:17;;;;;;;16.50;9.40;;;;;;;0.94;94.97;99590.98;214120;1310;22471;-75
2022/12/01 05:45:19;;;;;;;18.00;9.40;;;;;;;0.99;94.99;99586.95;214009;1310;25455;-75
2022/12/01 05:50:22;;;;;;;18.20;10.00;;;;;;;1.01;94.89;99584.79;214036;1310;22481;-75
2022/12/01 05:55:24;;;;;;;16.40;8.50;;;;;;;1.04;94.79;99583.16;213971;1310;25554;-75
2022/12/01 06:00:26;;;;;;;18.00;9.50;;;;;;;1.02;94.70;99581.14;214010;1310;25204;-75
2022/12/01 06:05:28;;;;;;;15.80;9.80;;;;;;;1.04;94.72;99587.59;213960;1310;25250;-75
2022/12/01 06:10:30;;;;;;;14.30;7.70;;;;;;;1.06;94.73;99592.30;214097;1310;22469;-75
2022/12/01 06:15:31;;;;;;;16.40;9.70;;;;;;;1.08;94.74;99596.95;214292;1310;22509;-75
2022/12/01 06:20:33;;;;;;;15.70;8.40;;;;;;;1.10;94.52;99599.60;214272;1310;24853;-75
2022/12/01 06:25:35;;;;;;;15.30;8.20;;;;;;;1.13;94.71;99608.84;214136;1298;22521;-75
2022/12/01 06:30:37;;;;;;;17.30;9.30;;;;;;;1.18;94.59;99609.12;214059;1310;26058;-75
2022/12/01 06:35:39;;;;;;;18.00;8.60;;;;;;;1.18;94.61;99614.80;214029;1310;25338;-75
2022/12/01 06:40:42;;;;;;;16.50;9.10;;;;;;;1.19;94.29;99617.77;214211;1310;22465;-73
2022/12/01 06:45:44;;;;;;;17.60;9.50;;;;;;;1.18;94.34;99618.18;214203;1287;22511;-73
2022/12/01 06:50:46;;;;;;;14.80;7.90;;;;;;;1.17;94.05;99616.95;214572;1292;22927;-75
2022/12/01 06:55:48;;;;;;;19.20;9.60;;;;;;;1.19;94.03;99622.05;214772;1280;22600;-75
2022/12/01 07:00:50;;;;;;;18.30;9.10;;;;;;;1.21;94.41;99623.81;214988;1280;22574;-74
2022/12/01 07:05:58;;;;;;;16.70;8.80;;;;;;;1.24;94.26;99626.81;214515;1281;26535;-74
2022/12/01 07:11:02;;;;;;;16.50;8.70;;;;;;;1.26;94.15;99625.11;214968;1280;24113;-74
2022/12/01 07:16:05;;;;;;;18.50;9.20;;;;;;;1.35;94.29;99630.83;214646;1281;22532;-75
2022/12/01 07:21:10;;;;;;;16.40;8.50;;;;;;;1.36;94.00;99629.76;214925;1281;24241;-74
2022/12/01 07:26:15;;;;;;;19.00;9.60;;;;;;;1.35;94.00;99631.59;215672;1284;22547;-73
2022/12/01 07:31:18;;;;;;;13.40;7.40;;;;;;;1.41;94.13;99635.23;214627;1281;23232;-74
2022/12/01 07:36:20;;;;;;;15.30;7.90;;;;;;;1.46;93.99;99639.32;214941;1285;25267;-74
2022/12/01 07:41:22;;;;;;;16.70;9.20;;;;;;;1.50;93.95;99642.68;214746;1281;23572;-74
2022/12/01 07:46:26;;;;;;;14.90;8.30;;;;;;;1.52;93.78;99639.70;214636;1285;22493;-74
2022/12/01 07:51:28;;;;;;;15.20;9.00;;;;;;;1.52;93.80;99640.44;214768;1281;23517;-74
2022/12/01 07:56:30;;;;;;;15.60;8.90;;;;;;;1.53;93.79;99639.90;214548;1289;22503;-74
2022/12/01 08:01:32;;;;;;;16.10;8.70;;;;;;;1.54;93.57;99640.20;214651;1281;22475;-75
2022/12/01 08:06:34;;;;;;;15.80;8.50;;;;;;;1.59;93.69;99637.09;214503;1286;22690;-73
2022/12/01 08:11:36;;;;;;;13.40;7.80;;;;;;;1.60;93.68;99635.30;214672;1281;22500;-74
2022/12/01 08:16:38;;;;;;;20.80;9.70;;;;;;;1.64;93.67;99638.62;214794;1312;22510;-74
2022/12/01 08:21:40;;;;;;;15.90;8.50;;;;;;;1.66;93.49;99637.67;214782;1285;138502;-74
2022/12/01 08:26:41;;;;;;;16.50;9.10;;;;;;;1.67;93.28;99633.25;214713;1284;138643;-74
2022/12/01 08:31:43;;;;;;;14.90;7.90;;;;;;;1.67;93.33;99631.38;214631;1278;138503;-74
2022/12/01 08:36:45;;;;;;;14.40;7.40;;;;;;;1.67;93.23;99631.42;214407;1278;138570;-73
2022/12/01 08:41:47;;;;;;;17.00;8.50;;;;;;;1.65;93.05;99631.51;214621;1281;25266;-73
2022/12/01 08:46:49;;;;;;;16.00;8.40;;;;;;;1.66;93.29;99641.27;214436;1285;138440;-74
2022/12/01 08:51:51;;;;;;;14.10;7.50;;;;;;;1.69;93.25;99648.41;214635;1285;138541;-74
2022/12/01 08:56:53;;;;;;;13.70;7.50;;;;;;;1.67;92.93;99650.04;214519;1284;138611;-73
2022/12/01 09:01:56;;;;;;;12.90;7.10;;;;;;;1.65;93.12;99652.68;214432;1295;138513;-74
2022/12/01 09:06:59;;;;;;;14.90;8.70;;;;;;;1.67;93.20;99647.98;214545;1288;138839;-74
2022/12/01 09:12:02;;;;;;;14.50;8.00;;;;;;;1.70;93.22;99648.31;214583;1287;25135;-74
2022/12/01 09:17:03;;;;;;;13.50;6.90;;;;;;;1.71;93.12;99645.58;214314;1285;138654;-74
2022/12/01 09:22:05;;;;;;;14.00;7.40;;;;;;;1.68;92.80;99646.20;214964;1287;139037;-73
2022/12/01 09:27:08;;;;;;;16.30;8.10;;;;;;;1.64;92.78;99644.31;214636;1289;138569;-74
2022/12/01 09:32:10;;;;;;;15.20;7.10;;;;;;;1.62;92.77;99641.63;214481;1289;138687;-74
2022/12/01 09:37:12;;;;;;;13.50;7.70;;;;;;;1.58;92.73;99630.64;214472;1310;138804;-73
2022/12/01 09:42:17;;;;;;;13.70;6.30;;;;;;;1.58;92.78;99625.77;214364;1312;138607;-74
2022/12/01 09:47:22;;;;;;;12.50;6.80;;;;;;;1.58;92.67;99616.59;214470;1289;23433;-73
2022/12/01 09:52:27;;;;;;;13.30;6.70;;;;;;;1.61;92.72;99618.64;214366;1305;138625;-72
2022/12/01 09:57:35;;;;;;;13.70;6.80;;;;;;;1.61;92.58;99613.11;214765;1292;138636;-74
2022/12/01 10:03:08;;;;;;;14.50;7.50;;;;;;;1.62;92.56;99611.31;214395;1289;138866;-73
2022/12/01 10:08:20;;;;;;;13.10;7.30;;;;;;;1.58;92.44;99610.08;214477;1288;138554;-74
2022/12/01 10:13:28;;;;;;;12.40;7.30;;;;;;;1.58;92.70;99604.91;214480;1288;138530;-73
2022/12/01 10:18:36;;;;;;;14.00;7.30;;;;;;;1.59;92.61;99607.71;215133;1289;138548;-72
2022/12/01 10:24:03;;;;;;;14.10;7.30;;;;;;;1.65;92.70;99608.42;215755;1294;23594;-72
2022/12/01 10:29:27;;;;;;;15.50;8.10;;;;;;;1.71;92.63;99601.86;214706;1281;138231;-73
2022/12/01 10:34:33;;;;;;;17.10;8.10;;;;;;;1.73;92.56;99599.20;214343;1285;139497;-72
2022/12/01 10:39:42;;;;;;;15.30;7.30;;;;;;;1.74;92.30;99595.83;214790;1281;145224;-71
2022/12/01 10:44:44;;;;;;;13.80;7.40;;;;;;;1.73;92.45;99592.17;214692;1280;139606;-71
2022/12/01 10:49:47;;;;;;;16.30;7.90;;;;;;;1.72;92.30;99588.27;214855;1284;138702;-72
2022/12/01 10:54:49;;;;;;;14.50;8.00;;;;;;;1.72;92.23;99586.57;214637;1284;138499;-72
2022/12/01 11:00:02;;;;;;;17.60;8.90;;;;;;;1.72;92.30;99585.15;214700;1285;22463;-71
2022/12/01 11:05:19;;;;;;;16.40;8.30;;;;;;;1.74;92.47;99576.36;214886;1284;138698;-72
2022/12/01 11:10:32;;;;;;;14.90;7.50;;;;;;;1.73;92.27;99573.73;214768;1285;138493;-71
2022/12/01 11:15:47;;;;;;;11.80;7.30;;;;;;;1.75;92.22;99575.18;214796;1285;138448;-71
2022/12/01 11:21:12;;;;;;;11.70;7.10;;;;;;;1.78;92.15;99576.95;215068;1281;138509;-71
2022/12/01 11:26:24;;;;;;;11.60;6.60;;;;;;;1.82;92.10;99576.89;215116;1281;138624;-71
2022/12/01 11:31:46;;;;;;;12.00;6.90;;;;;;;1.78;91.56;99579.15;215297;1288;138514;-71
2022/12/01 11:36:52;;;;;;;12.20;7.60;;;;;;;1.74;91.58;99577.34;215089;1288;139099;-70
2022/12/01 11:41:58;;;;;;;11.30;6.70;;;;;;;1.77;91.70;99573.06;215616;1285;22505;-72
2022/12/01 11:47:13;;;;;;;13.40;7.30;;;;;;;1.79;91.73;99575.33;211425;1285;138220;-70
2022/12/01 11:52:30;;;;;;;12.70;6.40;;;;;;;1.80;91.52;99574.29;211424;1288;138975;-70
2022/12/01 11:57:31;;;;;;;13.10;7.30;;;;;;;1.78;91.31;99575.52;219858;1288;138434;-71
2022/12/01 12:03:08;;;;;;;10.40;6.50;;;;;;;1.73;91.16;99569.27;219942;1293;138501;-71
2022/12/01 12:08:35;;;;;;;13.60;7.30;;;;;;;1.76;91.24;99572.49;219980;1299;138964;-71
2022/12/01 12:14:08;;;;;;;12.20;6.90;;;;;;;1.74;91.24;99572.05;219781;1287;139173;-72
2022/12/01 12:19:22;;;;;;;14.20;8.30;;;;;;;1.75;91.32;99574.58;219749;1296;138513;-72
2022/12/01 12:24:52;;;;;;;15.00;7.40;;;;;;;1.80;91.41;99571.83;219881;1298;139204;-71
2022/12/01 12:30:18;;;;;;;14.00;7.10;;;;;;;1.80;91.23;99576.56;219893;1304;23613;-71
2022/12/01 12:35:32;;;;;;;14.80;8.30;;;;;;;1.78;91.04;99578.61;220000;1295;22152;-71
2022/12/01 12:40:41;;;;;;;14.30;7.80;;;;;;;1.72;90.99;99577.52;219942;1299;138327;-71
2022/12/01 12:45:49;;;;;;;14.50;8.20;;;;;;;1.67;91.01;99580.79;219939;1311;139047;-72
2022/12/01 12:51:07;;;;;;;13.70;7.60;;;;;;;1.63;91.01;99573.13;219931;1293;138997;-73
2022/12/01 12:56:14;;;;;;;18.90;8.80;;;;;;;1.63;91.12;99572.06;219845;1311;138546;-72
2022/12/01 13:01:21;;;;;;;14.30;7.40;;;;;;;1.63;90.96;99574.95;219879;1311;139163;-71
2022/12/01 13:06:31;;;;;;;15.50;8.10;;;;;;;1.60;90.97;99583.52;219798;1300;138521;-73
2022/12/01 13:11:42;;;;;;;11.50;7.00;;;;;;;1.61;90.89;99582.27;219802;1310;24569;-71
2022/12/01 13:16:47;;;;;;;12.90;8.00;;;;;;;1.60;90.93;99577.44;219843;1302;139126;-71
2022/12/01 13:21:51;;;;;;;12.70;6.60;;;;;;;1.54;90.96;99584.94;219801;1292;138621;-72
2022/12/01 13:26:59;;;;;;;12.40;7.70;;;;;;;1.50;90.94;99581.91;219786;1290;138709;-71
2022/12/01 13:32:01;;;;;;;15.30;8.70;;;;;;;1.45;90.97;99581.15;219719;1288;138684;-73
2022/12/01 13:37:03;;;;;;;13.40;7.80;;;;;;;1.47;91.14;99582.23;219798;1292;138681;-72
2022/12/01 13:42:22;;;;;;;13.20;6.90;;;;;;;1.47;91.25;99581.06;220004;1288;26206;-72
2022/12/01 13:47:37;;;;;;;14.80;8.60;;;;;;;1.52;91.30;99582.50;219781;1291;22255;-72
2022/12/01 13:52:48;;;;;;;12.90;7.60;;;;;;;1.51;91.03;99578.61;219855;1293;138301;-72
2022/12/01 13:57:56;;;;;;;12.60;7.10;;;;;;;1.50;90.87;99583.17;219811;1294;138637;-73
2022/12/01 14:03:13;;;;;;;14.30;7.10;;;;;;;1.45;90.82;99580.29;219904;1295;138669;-73
2022/12/01 14:08:27;;;;;;;10.80;6.80;;;;;;;1.40;90.81;99583.29;219918;1293;139115;-73
2022/12/01 14:13:31;;;;;;;12.40;7.30;;;;;;;1.40;90.79;99584.34;219805;1293;139227;-73
2022/12/01 14:18:36;;;;;;;13.50;7.40;;;;;;;1.41;90.79;99582.95;219705;1291;139282;-73
2022/12/01 14:23:55;;;;;;;12.60;6.80;;;;;;;1.39;90.68;99589.58;219922;1293;22214;-73
2022/12/01 14:29:00;;;;;;;12.80;6.00;;;;;;;1.34;90.62;99591.10;219944;1293;138721;-73
2022/12/01 14:34:17;;;;;;;11.70;7.00;;;;;;;1.34;90.54;99591.14;219936;1294;139522;-73
2022/12/01 14:39:21;;;;;;;13.80;7.20;;;;;;;1.31;90.53;99597.20;219931;1284;140511;-73
2022/12/01 14:44:33;;;;;;;13.20;7.10;;;;;;;1.31;90.69;99595.09;219848;1278;138814;-73
2022/12/01 14:49:57;;;;;;;15.00;7.80;;;;;;;1.30;90.67;99593.06;219822;1294;138634;-72
2022/12/01 14:55:05;;;;;;;10.60;6.30;;;;;;;1.29;90.61;99586.48;218196;1286;138477;-73
2022/12/01 15:00:24;;;;;;;11.90;7.10;;;;;;;1.27;90.69;99584.70;214527;1289;22522;-73
2022/12/01 15:05:28;;;;;;;16.00;8.30;;;;;;;1.30;90.92;99585.42;214421;1310;22487;-73
2022/12/01 15:10:35;;;;;;;12.90;7.90;;;;;;;1.28;90.67;99588.28;215382;1287;25262;-72
2022/12/01 15:15:49;;;;;;;13.60;7.10;;;;;;;1.25;90.78;99586.20;214353;1288;22798;-72
2022/12/01 15:20:58;;;;;;;12.30;6.30;;;;;;;1.24;90.81;99584.63;214113;1310;25313;-73
2022/12/01 15:26:00;;;;;;;11.00;6.40;;;;;;;1.28;90.91;99586.69;214102;1304;22473;-72
2022/12/01 15:31:10;;;;;;;12.70;6.50;;;;;;;1.27;90.84;99591.52;213992;1298;22468;-73
2022/12/01 15:36:12;;;;;;;14.50;6.70;;;;;;;1.19;90.53;99587.73;214044;1310;22559;-72
2022/12/01 15:41:18;;;;;;;10.50;6.00;;;;;;;1.14;90.48;99587.00;213981;1310;22536;-72
2022/12/01 15:46:35;;;;;;;9.30;5.70;;;;;;;1.09;90.57;99587.14;214167;1310;22477;-72
2022/12/01 15:51:37;;;;;;;14.10;7.50;;;;;;;1.08;90.64;99587.55;214130;1310;25314;-73
2022/12/01 15:56:40;;;;;;;9.70;5.90;;;;;;;1.06;90.77;99586.95;214180;1310;22466;-71
2022/12/01 16:01:44;;;;;;;11.00;6.30;;;;;;;1.03;90.66;99585.05;214070;1310;22471;-74
2022/12/01 16:07:03;;;;;;;12.90;6.40;;;;;;;1.02;90.61;99585.48;214037;1310;22531;-72
2022/12/01 16:12:18;;;;;;;10.40;5.90;;;;;;;1.04;90.88;99577.77;213932;1310;22486;-72
2022/12/01 16:17:22;;;;;;;12.80;7.40;;;;;;;1.05;90.83;99579.67;214073;1310;22563;-73
2022/12/01 16:22:24;;;;;;;13.00;7.50;;;;;;;1.05;90.75;99582.15;213317;1310;22550;-72
2022/12/01 16:27:29;;;;;;;9.80;6.60;;;;;;;1.05;90.74;99581.27;213111;1310;24362;-73
2022/12/01 16:32:35;;;;;;;13.10;6.50;;;;;;;1.07;90.80;99578.53;214106;1310;22477;-72
2022/12/01 16:37:37;;;;;;;11.50;6.00;;;;;;;1.08;90.64;99579.34;214036;1310;23294;-72
2022/12/01 16:42:39;;;;;;;12.30;6.20;;;;;;;1.10;90.69;99580.96;214006;1310;22485;-71
2022/12/01 16:47:42;;;;;;;11.10;6.90;;;;;;;1.09;90.61;99578.54;214045;1310;23220;-73
2022/12/01 16:52:44;;;;;;;13.20;6.80;;;;;;;1.06;90.65;99578.13;214001;1310;22646;-73
2022/12/01 16:57:46;;;;;;;15.30;8.70;;;;;;;1.05;90.64;99578.18;213891;1310;25436;-73
2022/12/01 17:02:49;;;;;;;14.60;8.20;;;;;;;1.04;90.71;99580.20;214076;1310;22461;-72
2022/12/01 17:07:51;;;;;;;17.80;9.30;;;;;;;1.07;90.79;99582.06;214024;1307;22477;-74
2022/12/01 17:12:53;;;;;;;17.80;9.30;;;;;;;1.08;90.78;99581.74;214165;1310;25223;-72
2022/12/01 17:17:55;;;;;;;21.10;10.00;;;;;;;1.07;91.00;99580.85;214125;1309;25238;-73
2022/12/01 17:22:57;;;;;;;13.70;7.00;;;;;;;1.09;90.99;99582.47;214184;1310;22485;-72
2022/12/01 17:28:00;;;;;;;14.90;8.20;;;;;;;1.10;90.95;99586.33;214028;1305;22496;-71
2022/12/01 17:33:02;;;;;;;14.20;8.30;;;;;;;1.07;90.64;99585.80;214136;1310;22579;-73
2022/12/01 17:38:04;;;;;;;13.80;7.40;;;;;;;1.08;90.87;99583.77;214036;1310;24285;-72
2022/12/01 17:43:07;;;;;;;17.10;8.10;;;;;;;1.09;90.86;99582.83;214288;1307;22487;-73
2022/12/01 17:48:09;;;;;;;17.70;8.20;;;;;;;1.10;90.86;99575.11;214030;1306;23308;-73
2022/12/01 17:53:11;;;;;;;14.50;8.30;;;;;;;1.09;90.77;99575.98;214115;1306;24699;-72
2022/12/01 17:58:13;;;;;;;16.10;8.70;;;;;;;1.07;90.80;99573.66;214079;1310;23741;-72
2022/12/01 18:03:15;;;;;;;16.70;7.90;;;;;;;1.06;90.78;99577.84;214180;1296;23255;-73
2022/12/01 18:08:17;;;;;;;16.00;9.10;;;;;;;1.05;90.88;99572.05;214071;1310;23176;-72
2022/12/01 18:13:20;;;;;;;15.80;9.30;;;;;;;1.02;90.83;99575.17;214213;1310;24313;-72
2022/12/01 18:18:22;;;;;;;17.30;9.70;;;;;;;1.02;91.05;99575.33;214154;1310;22492;-73
2022/12/01 18:23:24;;;;;;;15.90;9.40;;;;;;;0.99;91.05;99573.22;214140;1310;22481;-72
2022/12/01 18:28:26;;;;;;;18.70;10.00;;;;;;;1.00;91.20;99572.01;214037;1310;24586;-72
2022/12/01 18:33:29;;;;;;;17.40;9.10;;;;;;;1.00;91.12;99573.52;214329;1305;22485;-72
2022/12/01 18:38:31;;;;;;;16.20;8.50;;;;;;;0.99;91.11;99568.43;214098;1310;22497;-72
2022/12/01 18:43:33;;;;;;;16.80;8.60;;;;;;;1.01;91.14;99576.71;214164;1310;22475;-72
2022/12/01 18:48:35;;;;;;;16.00;8.40;;;;;;;0.97;90.85;99574.05;213968;1310;22573;-72
2022/12/01 18:53:37;;;;;;;17.50;8.50;;;;;;;0.96;90.92;99571.73;213897;1310;25269;-72
2022/12/01 18:58:39;;;;;;;17.30;9.60;;;;;;;0.97;90.91;99570.43;214144;1310;25268;-73
2022/12/01 19:03:41;;;;;;;15.40;8.40;;;;;;;0.96;90.92;99569.63;214212;1293;22483;-72
2022/12/01 19:08:43;;;;;;;16.60;9.10;;;;;;;0.96;90.93;99572.91;213991;1310;23222;-73
2022/12/01 19:13:45;;;;;;;18.80;10.20;;;;;;;0.97;91.16;99573.14;214156;1310;22498;-71
2022/12/01 19:18:47;;;;;;;17.60;9.40;;;;;;;0.95;91.05;99574.38;214005;1310;22468;-72
2022/12/01 19:23:51;;;;;;;23.20;10.80;;;;;;;0.91;91.02;99571.86;214195;1304;22489;-73
2022/12/01 19:28:53;;;;;;;19.10;10.20;;;;;;;0.92;91.19;99571.27;214290;1310;24289;-73
2022/12/01 19:33:55;;;;;;;17.30;9.80;;;;;;;0.93;91.11;99570.60;214143;1310;22498;-72
2022/12/01 19:38:59;;;;;;;16.90;8.90;;;;;;;0.92;91.07;99564.74;214127;1309;23909;-73
2022/12/01 19:44:08;;;;;;;21.80;10.50;;;;;;;0.89;90.91;99561.27;214054;1310;22470;-72
2022/12/01 19:49:10;;;;;;;20.80;10.90;;;;;;;0.87;91.04;99558.23;214111;1310;22468;-72
2022/12/01 19:54:19;;;;;;;15.40;7.90;;;;;;;0.85;90.90;99551.70;214191;1310;22532;-72
2022/12/01 19:59:21;;;;;;;13.10;6.90;;;;;;;0.81;90.63;99550.80;214045;1309;22619;-73
2022/12/01 20:04:23;;;;;;;16.30;7.70;;;;;;;0.76;90.55;99544.52;214126;1310;23082;-72
2022/12/01 20:09:25;;;;;;;15.40;7.70;;;;;;;0.71;90.43;99547.13;213918;1310;22543;-72
2022/12/01 20:14:27;;;;;;;12.00;6.70;;;;;;;0.69;90.60;99547.27;214168;1310;23566;-73
2022/12/01 20:19:29;;;;;;;14.60;8.10;;;;;;;0.66;90.38;99550.58;214233;1310;25362;-73
2022/12/01 20:24:30;;;;;;;14.80;7.60;;;;;;;0.64;90.29;99549.61;214149;1310;26010;-72
2022/12/01 20:29:33;;;;;;;12.10;6.30;;;;;;;0.59;90.31;99549.24;214147;1310;23082;-73
2022/12/01 20:34:35;;;;;;;14.80;7.20;;;;;;;0.57;90.45;99552.30;214036;1310;25369;-72
2022/12/01 20:39:40;;;;;;;12.80;7.90;;;;;;;0.56;90.61;99550.48;214112;1310;23243;-73
2022/12/01 20:44:42;;;;;;;15.10;8.10;;;;;;;0.58;90.58;99546.10;213984;1310;22477;-72
2022/12/01 20:49:44;;;;;;;16.70;8.30;;;;;;;0.57;90.55;99545.77;213920;1307;22478;-73
2022/12/01 20:54:46;;;;;;;17.90;8.80;;;;;;;0.55;90.52;99554.16;214070;1310;22596;-75
2022/12/01 20:59:48;;;;;;;14.30;7.50;;;;;;;0.53;90.70;99555.09;214061;1310;23769;-73
2022/12/01 21:04:49;;;;;;;16.30;7.60;;;;;;;0.52;90.53;99551.08;214221;1310;24344;-72
2022/12/01 21:09:58;;;;;;;17.70;8.20;;;;;;;0.48;90.64;99552.61;214076;1310;25404;-73
2022/12/01 21:15:04;;;;;;;17.00;8.60;;;;;;;0.52;90.77;99546.95;213884;1305;22470;-73
2022/12/01 21:20:20;;;;;;;17.30;9.30;;;;;;;0.54;90.60;99550.17;214020;1311;24423;-72
2022/12/01 21:25:23;;;;;;;18.00;8.30;;;;;;;0.55;90.92;99547.99;214200;1310;25286;-72
2022/12/01 21:30:25;;;;;;;18.80;9.00;;;;;;;0.59;90.73;99548.89;214174;1310;22531;-73
2022/12/01 21:35:27;;;;;;;18.40;8.70;;;;;;;0.59;90.73;99552.45;214083;1305;22502;-72
2022/12/01 21:40:29;;;;;;;14.60;7.70;;;;;;;0.57;90.80;99552.66;214203;1310;22882;-73
2022/12/01 21:45:31;;;;;;;21.50;8.80;;;;;;;0.59;90.83;99555.45;214217;1310;24369;-73
2022/12/01 21:50:33;;;;;;;15.50;8.00;;;;;;;0.58;90.54;99553.30;214007;1310;25220;-72
2022/12/01 21:55:36;;;;;;;17.80;8.50;;;;;;;0.53;90.25;99552.83;214027;1310;24456;-74
2022/12/01 22:00:40;;;;;;;16.20;8.30;;;;;;;0.50;90.43;99549.66;213999;1310;22594;-73
2022/12/01 22:05:44;;;;;;;20.70;8.70;;;;;;;0.46;90.42;99550.84;214058;1310;25328;-72
2022/12/01 22:11:23;;;;;;;16.00;8.60;;;;;;;0.45;90.60;99549.83;214058;1310;22478;-72
2022/12/01 22:16:35;;;;;;;22.80;9.80;;;;;;;0.52;90.78;99548.61;214479;1304;22500;-72
2022/12/01 22:21:44;;;;;;;16.40;7.90;;;;;;;0.54;90.83;99546.54;214070;1310;24083;-72
2022/12/01 22:27:07;;;;;;;15.40;8.80;;;;;;;0.57;90.90;99543.25;214124;1294;25309;-73
2022/12/01 22:32:12;;;;;;;13.80;7.20;;;;;;;0.56;90.43;99541.91;214063;1310;22946;-73
2022/12/01 22:37:35;;;;;;;18.00;8.80;;;;;;;0.50;90.43;99537.33;214002;1310;22477;-72
2022/12/01 22:42:37;;;;;;;15.00;7.60;;;;;;;0.44;90.44;99537.77;213016;1310;25507;-72
2022/12/01 22:47:43;;;;;;;14.00;7.50;;;;;;;0.39;90.43;99536.27;213037;1294;22586;-73
2022/12/01 22:52:49;;;;;;;18.90;7.50;;;;;;;0.34;90.51;99529.83;214118;1310;25343;-72
2022/12/01 22:57:51;;;;;;;15.10;7.80;;;;;;;0.29;90.43;99526.79;213968;1310;24247;-74
2022/12/01 23:02:55;;;;;;;15.10;6.90;;;;;;;0.27;90.45;99525.29;214175;1310;22527;-74
2022/12/01 23:07:57;;;;;;;14.60;6.70;;;;;;;0.27;90.70;99525.11;214236;1310;23776;-72
2022/12/01 23:13:07;;;;;;;16.90;8.10;;;;;;;0.25;90.24;99522.98;214324;1310;22485;-73
2022/12/01 23:18:20;;;;;;;;;;;;;;;0.22;90.36;99516.69;214138;1310;22536;-72
2022/12/01 23:23:32;;;;;;;15.10;7.40;;;;;;;0.22;90.54;99515.30;214103;1310;25428;-71
2022/12/01 23:28:35;;;;;;;15.40;7.50;;;;;;;0.22;90.51;99517.26;214176;1310;22537;-73
2022/12/01 23:33:37;;;;;;;14.40;7.10;;;;;;;0.22;90.63;99515.59;214115;1310;24568;-72
2022/12/01 23:38:45;;;;;;;14.10;7.20;;;;;;;0.24;90.61;99512.71;214150;1301;22472;-72
2022/12/01 23:43:48;;;;;;;13.40;6.80;;;;;;;0.25;90.59;99509.76;213717;1310;25224;-73